sensor_id;sensor_type;location;lat;lon;timestamp;temperature;humidity
21487;DHT22;10905;50.822;4.336;2023-07-29T00:01:08;20.80;99.90
21487;DHT22;10905;50.822;4.336;2023-07-29T00:03:34;20.70;99.90
21487;DHT22;10905;50.822;4.336;2023-07-29T00:05:59;20.60;99.90
21487;DHT22;10905;50.822;4.336;2023-07-29T00:08:25;20.50;99.90
21487;DHT22;10905;50.822;4.336;2023-07-29T00:10:51;20.40;99.90
21487;DHT22;10905;50.822;4.336;2023-07-29T00:13:17;20.30;99.90
21487;DHT22;10905;50.822;4.336;2023-07-29T00:15:43;20.20;99.90
21487;DHT22;10905;50.822;4.336;2023-07-29T00:18:08;20.30;99.90
21487;DHT22;10905;50.822;4.336;2023-07-29T00:20:34;20.20;99.90
21487;DHT22;10905;50.822;4.336;2023-07-29T00:22:59;20.10;99.90
21487;DHT22;10905;50.822;4.336;2023-07-29T00:25:26;20.10;99.90
21487;DHT22;10905;50.822;4.336;2023-07-29T00:27:54;20.00;99.90
21487;DHT22;10905;50.822;4.336;2023-07-29T00:30:19;20.00;99.90
21487;DHT22;10905;50.822;4.336;2023-07-29T00:32:45;19.80;99.90
21487;DHT22;10905;50.822;4.336;2023-07-29T00:35:10;19.80;99.90
21487;DHT22;10905;50.822;4.336;2023-07-29T00:37:36;19.70;99.90
21487;DHT22;10905;50.822;4.336;2023-07-29T00:40:04;19.80;99.90
21487;DHT22;10905;50.822;4.336;2023-07-29T00:42:30;19.80;99.90
21487;DHT22;10905;50.822;4.336;2023-07-29T00:44:56;19.90;99.90
21487;DHT22;10905;50.822;4.336;2023-07-29T00:47:22;19.80;99.90
21487;DHT22;10905;50.822;4.336;2023-07-29T00:49:50;19.80;99.90
21487;DHT22;10905;50.822;4.336;2023-07-29T00:52:16;19.70;99.90
21487;DHT22;10905;50.822;4.336;2023-07-29T00:54:42;19.60;99.90
21487;DHT22;10905;50.822;4.336;2023-07-29T00:57:09;19.60;99.90
21487;DHT22;10905;50.822;4.336;2023-07-29T00:59:35;19.60;99.90
21487;DHT22;10905;50.822;4.336;2023-07-29T01:02:02;19.70;99.90
21487;DHT22;10905;50.822;4.336;2023-07-29T01:04:28;19.70;99.90
21487;DHT22;10905;50.822;4.336;2023-07-29T01:17:25;19.50;99.90
21487;DHT22;10905;50.822;4.336;2023-07-29T01:22:20;19.50;99.90
21487;DHT22;10905;50.822;4.336;2023-07-29T01:24:46;19.40;99.90
21487;DHT22;10905;50.822;4.336;2023-07-29T01:27:12;19.40;99.90
21487;DHT22;10905;50.822;4.336;2023-07-29T01:29:38;19.30;99.90
21487;DHT22;10905;50.822;4.336;2023-07-29T01:32:39;19.30;99.90
21487;DHT22;10905;50.822;4.336;2023-07-29T01:35:13;19.30;99.90
21487;DHT22;10905;50.822;4.336;2023-07-29T01:37:41;19.20;99.90
21487;DHT22;10905;50.822;4.336;2023-07-29T01:40:08;19.20;99.90
21487;DHT22;10905;50.822;4.336;2023-07-29T01:42:35;19.20;99.90
21487;DHT22;10905;50.822;4.336;2023-07-29T01:45:01;19.20;99.90
21487;DHT22;10905;50.822;4.336;2023-07-29T01:47:27;19.20;99.90
21487;DHT22;10905;50.822;4.336;2023-07-29T01:49:52;19.20;99.90
21487;DHT22;10905;50.822;4.336;2023-07-29T01:52:18;19.20;99.90
21487;DHT22;10905;50.822;4.336;2023-07-29T01:54:43;19.20;99.90
21487;DHT22;10905;50.822;4.336;2023-07-29T01:57:09;19.20;99.90
21487;DHT22;10905;50.822;4.336;2023-07-29T01:59:34;19.30;99.90
21487;DHT22;10905;50.822;4.336;2023-07-29T02:02:00;19.20;99.90
21487;DHT22;10905;50.822;4.336;2023-07-29T02:04:26;19.20;99.90
21487;DHT22;10905;50.822;4.336;2023-07-29T02:06:51;19.10;99.90
21487;DHT22;10905;50.822;4.336;2023-07-29T02:09:17;19.10;99.90
21487;DHT22;10905;50.822;4.336;2023-07-29T02:11:42;19.10;99.90
21487;DHT22;10905;50.822;4.336;2023-07-29T02:14:08;19.10;99.90
21487;DHT22;10905;50.822;4.336;2023-07-29T02:16:33;19.00;99.90
21487;DHT22;10905;50.822;4.336;2023-07-29T02:19:00;19.00;99.90
21487;DHT22;10905;50.822;4.336;2023-07-29T02:21:25;19.00;99.90
21487;DHT22;10905;50.822;4.336;2023-07-29T02:23:51;19.00;99.90
21487;DHT22;10905;50.822;4.336;2023-07-29T02:26:17;19.00;99.90
21487;DHT22;10905;50.822;4.336;2023-07-29T02:28:43;18.90;99.90
21487;DHT22;10905;50.822;4.336;2023-07-29T02:31:42;18.90;99.90
21487;DHT22;10905;50.822;4.336;2023-07-29T02:34:03;19.00;99.90
21487;DHT22;10905;50.822;4.336;2023-07-29T02:36:28;19.10;99.90
21487;DHT22;10905;50.822;4.336;2023-07-29T02:38:54;19.00;99.90
21487;DHT22;10905;50.822;4.336;2023-07-29T02:41:20;18.90;99.90
21487;DHT22;10905;50.822;4.336;2023-07-29T02:43:49;18.90;99.90
21487;DHT22;10905;50.822;4.336;2023-07-29T02:46:15;18.90;99.90
21487;DHT22;10905;50.822;4.336;2023-07-29T02:48:42;18.90;99.90
21487;DHT22;10905;50.822;4.336;2023-07-29T02:51:08;19.00;99.90
21487;DHT22;10905;50.822;4.336;2023-07-29T02:53:33;19.00;99.90
21487;DHT22;10905;50.822;4.336;2023-07-29T02:56:02;19.00;99.90
21487;DHT22;10905;50.822;4.336;2023-07-29T02:58:28;19.00;99.90
21487;DHT22;10905;50.822;4.336;2023-07-29T03:01:00;18.90;99.90
21487;DHT22;10905;50.822;4.336;2023-07-29T03:03:26;19.00;99.90
21487;DHT22;10905;50.822;4.336;2023-07-29T03:06:01;18.90;99.90
21487;DHT22;10905;50.822;4.336;2023-07-29T03:08:27;18.90;99.90
21487;DHT22;10905;50.822;4.336;2023-07-29T03:10:53;18.90;99.90
21487;DHT22;10905;50.822;4.336;2023-07-29T03:13:19;18.90;99.90
21487;DHT22;10905;50.822;4.336;2023-07-29T03:15:44;18.90;99.90
21487;DHT22;10905;50.822;4.336;2023-07-29T03:18:10;18.90;99.90
21487;DHT22;10905;50.822;4.336;2023-07-29T03:20:36;18.80;99.90
21487;DHT22;10905;50.822;4.336;2023-07-29T03:23:01;18.80;99.90
21487;DHT22;10905;50.822;4.336;2023-07-29T03:25:28;18.80;99.90
21487;DHT22;10905;50.822;4.336;2023-07-29T03:27:54;18.80;99.90
21487;DHT22;10905;50.822;4.336;2023-07-29T03:30:21;18.70;99.90
21487;DHT22;10905;50.822;4.336;2023-07-29T03:32:47;18.60;99.90
21487;DHT22;10905;50.822;4.336;2023-07-29T03:35:13;18.60;99.90
21487;DHT22;10905;50.822;4.336;2023-07-29T03:37:39;18.60;99.90
21487;DHT22;10905;50.822;4.336;2023-07-29T03:40:06;18.60;99.90
21487;DHT22;10905;50.822;4.336;2023-07-29T03:42:31;18.60;99.90
21487;DHT22;10905;50.822;4.336;2023-07-29T03:44:57;18.60;99.90
21487;DHT22;10905;50.822;4.336;2023-07-29T03:47:23;18.50;99.90
21487;DHT22;10905;50.822;4.336;2023-07-29T03:49:48;18.50;99.90
21487;DHT22;10905;50.822;4.336;2023-07-29T03:52:14;18.50;99.90
21487;DHT22;10905;50.822;4.336;2023-07-29T03:54:39;18.50;99.90
21487;DHT22;10905;50.822;4.336;2023-07-29T03:57:05;18.40;99.90
21487;DHT22;10905;50.822;4.336;2023-07-29T03:59:31;18.50;99.90
21487;DHT22;10905;50.822;4.336;2023-07-29T04:01:57;18.50;99.90
21487;DHT22;10905;50.822;4.336;2023-07-29T04:04:22;18.60;99.90
21487;DHT22;10905;50.822;4.336;2023-07-29T04:06:48;18.50;99.90
21487;DHT22;10905;50.822;4.336;2023-07-29T04:09:13;18.60;99.90
21487;DHT22;10905;50.822;4.336;2023-07-29T04:11:39;18.60;99.90
21487;DHT22;10905;50.822;4.336;2023-07-29T04:14:05;18.60;99.90
21487;DHT22;10905;50.822;4.336;2023-07-29T04:16:30;18.60;99.90
21487;DHT22;10905;50.822;4.336;2023-07-29T04:18:56;18.60;99.90
21487;DHT22;10905;50.822;4.336;2023-07-29T04:21:21;18.60;99.90
21487;DHT22;10905;50.822;4.336;2023-07-29T04:23:47;18.60;99.90
21487;DHT22;10905;50.822;4.336;2023-07-29T04:26:13;18.60;99.90
21487;DHT22;10905;50.822;4.336;2023-07-29T04:28:38;18.70;99.90
21487;DHT22;10905;50.822;4.336;2023-07-29T04:31:04;18.60;99.90
21487;DHT22;10905;50.822;4.336;2023-07-29T04:33:30;18.60;99.90
21487;DHT22;10905;50.822;4.336;2023-07-29T04:35:59;18.60;99.90
21487;DHT22;10905;50.822;4.336;2023-07-29T04:38:30;18.70;99.90
21487;DHT22;10905;50.822;4.336;2023-07-29T04:40:56;18.60;99.90
21487;DHT22;10905;50.822;4.336;2023-07-29T04:43:21;18.60;99.90
21487;DHT22;10905;50.822;4.336;2023-07-29T04:45:47;18.60;99.90
21487;DHT22;10905;50.822;4.336;2023-07-29T04:48:13;18.70;99.90
21487;DHT22;10905;50.822;4.336;2023-07-29T04:50:39;18.70;99.90
21487;DHT22;10905;50.822;4.336;2023-07-29T04:53:05;18.70;99.90
21487;DHT22;10905;50.822;4.336;2023-07-29T04:55:30;18.60;99.90
21487;DHT22;10905;50.822;4.336;2023-07-29T04:57:56;18.60;99.90
21487;DHT22;10905;50.822;4.336;2023-07-29T05:00:22;18.60;99.90
21487;DHT22;10905;50.822;4.336;2023-07-29T05:02:47;18.70;99.90
21487;DHT22;10905;50.822;4.336;2023-07-29T05:05:13;18.70;99.90
21487;DHT22;10905;50.822;4.336;2023-07-29T05:07:38;18.70;99.90
21487;DHT22;10905;50.822;4.336;2023-07-29T05:10:05;18.70;99.90
21487;DHT22;10905;50.822;4.336;2023-07-29T05:12:30;18.70;99.90
21487;DHT22;10905;50.822;4.336;2023-07-29T05:14:58;18.60;99.90
21487;DHT22;10905;50.822;4.336;2023-07-29T05:17:23;18.60;99.90
21487;DHT22;10905;50.822;4.336;2023-07-29T05:19:49;18.60;99.90
21487;DHT22;10905;50.822;4.336;2023-07-29T05:22:15;18.60;99.90
21487;DHT22;10905;50.822;4.336;2023-07-29T05:24:40;18.60;99.90
21487;DHT22;10905;50.822;4.336;2023-07-29T05:27:06;18.60;99.90
21487;DHT22;10905;50.822;4.336;2023-07-29T05:29:33;18.70;99.90
21487;DHT22;10905;50.822;4.336;2023-07-29T05:31:59;18.80;99.90
21487;DHT22;10905;50.822;4.336;2023-07-29T05:34:25;18.80;99.90
21487;DHT22;10905;50.822;4.336;2023-07-29T05:36:50;18.90;99.90
21487;DHT22;10905;50.822;4.336;2023-07-29T05:39:16;18.90;99.90
21487;DHT22;10905;50.822;4.336;2023-07-29T05:41:41;18.90;99.90
21487;DHT22;10905;50.822;4.336;2023-07-29T05:44:07;19.10;99.90
21487;DHT22;10905;50.822;4.336;2023-07-29T05:46:33;19.20;99.90
21487;DHT22;10905;50.822;4.336;2023-07-29T05:48:58;19.30;99.90
21487;DHT22;10905;50.822;4.336;2023-07-29T05:51:24;19.40;99.90
21487;DHT22;10905;50.822;4.336;2023-07-29T05:53:49;19.50;99.90
21487;DHT22;10905;50.822;4.336;2023-07-29T05:56:15;19.50;99.90
21487;DHT22;10905;50.822;4.336;2023-07-29T05:58:41;19.60;99.90
21487;DHT22;10905;50.822;4.336;2023-07-29T06:01:06;19.70;99.90
21487;DHT22;10905;50.822;4.336;2023-07-29T06:03:32;19.80;99.90
21487;DHT22;10905;50.822;4.336;2023-07-29T06:05:57;19.70;99.90
21487;DHT22;10905;50.822;4.336;2023-07-29T06:08:23;19.70;99.90
21487;DHT22;10905;50.822;4.336;2023-07-29T06:10:49;19.80;99.90
21487;DHT22;10905;50.822;4.336;2023-07-29T06:13:14;19.90;99.90
21487;DHT22;10905;50.822;4.336;2023-07-29T06:15:40;19.90;99.90
21487;DHT22;10905;50.822;4.336;2023-07-29T06:18:05;20.00;99.90
21487;DHT22;10905;50.822;4.336;2023-07-29T06:20:31;20.20;99.90
21487;DHT22;10905;50.822;4.336;2023-07-29T06:22:57;20.20;99.90
21487;DHT22;10905;50.822;4.336;2023-07-29T06:25:22;20.40;99.90
21487;DHT22;10905;50.822;4.336;2023-07-29T06:27:48;20.50;99.90
21487;DHT22;10905;50.822;4.336;2023-07-29T06:30:13;20.60;99.90
21487;DHT22;10905;50.822;4.336;2023-07-29T06:32:39;20.70;99.90
21487;DHT22;10905;50.822;4.336;2023-07-29T06:35:05;20.80;99.90
21487;DHT22;10905;50.822;4.336;2023-07-29T06:37:31;20.80;99.90
21487;DHT22;10905;50.822;4.336;2023-07-29T06:39:58;20.70;99.90
21487;DHT22;10905;50.822;4.336;2023-07-29T06:42:24;20.80;99.90
21487;DHT22;10905;50.822;4.336;2023-07-29T06:44:49;20.80;99.90
21487;DHT22;10905;50.822;4.336;2023-07-29T06:47:15;20.80;99.90
21487;DHT22;10905;50.822;4.336;2023-07-29T06:49:41;20.80;99.90
21487;DHT22;10905;50.822;4.336;2023-07-29T06:52:06;20.90;99.90
21487;DHT22;10905;50.822;4.336;2023-07-29T06:54:32;20.80;99.90
21487;DHT22;10905;50.822;4.336;2023-07-29T06:56:58;20.80;99.90
21487;DHT22;10905;50.822;4.336;2023-07-29T06:59:23;20.80;99.90
21487;DHT22;10905;50.822;4.336;2023-07-29T07:01:50;20.80;99.90
21487;DHT22;10905;50.822;4.336;2023-07-29T07:04:15;20.70;99.90
21487;DHT22;10905;50.822;4.336;2023-07-29T07:06:41;20.70;99.90
21487;DHT22;10905;50.822;4.336;2023-07-29T07:09:06;20.60;99.90
21487;DHT22;10905;50.822;4.336;2023-07-29T07:11:32;20.60;99.90
21487;DHT22;10905;50.822;4.336;2023-07-29T07:13:58;20.60;99.90
21487;DHT22;10905;50.822;4.336;2023-07-29T07:16:23;20.70;99.90
21487;DHT22;10905;50.822;4.336;2023-07-29T07:18:49;20.80;99.90
21487;DHT22;10905;50.822;4.336;2023-07-29T07:21:14;20.70;99.90
21487;DHT22;10905;50.822;4.336;2023-07-29T07:23:40;20.70;99.90
21487;DHT22;10905;50.822;4.336;2023-07-29T07:26:06;20.60;99.90
21487;DHT22;10905;50.822;4.336;2023-07-29T07:28:31;20.60;99.90
21487;DHT22;10905;50.822;4.336;2023-07-29T07:30:57;20.60;99.90
21487;DHT22;10905;50.822;4.336;2023-07-29T07:33:22;20.50;99.90
21487;DHT22;10905;50.822;4.336;2023-07-29T07:35:48;20.40;99.90
21487;DHT22;10905;50.822;4.336;2023-07-29T07:38:14;20.40;99.90
21487;DHT22;10905;50.822;4.336;2023-07-29T07:40:40;20.50;99.90
21487;DHT22;10905;50.822;4.336;2023-07-29T07:43:05;20.50;99.90
21487;DHT22;10905;50.822;4.336;2023-07-29T07:45:32;20.50;99.90
21487;DHT22;10905;50.822;4.336;2023-07-29T07:47:58;20.70;99.90
21487;DHT22;10905;50.822;4.336;2023-07-29T07:50:23;20.80;99.90
21487;DHT22;10905;50.822;4.336;2023-07-29T07:52:49;20.90;99.90
21487;DHT22;10905;50.822;4.336;2023-07-29T07:55:15;20.90;99.90
21487;DHT22;10905;50.822;4.336;2023-07-29T07:57:40;21.20;99.90
21487;DHT22;10905;50.822;4.336;2023-07-29T08:00:06;21.30;99.90
21487;DHT22;10905;50.822;4.336;2023-07-29T08:02:32;21.50;99.90
21487;DHT22;10905;50.822;4.336;2023-07-29T08:04:58;21.50;99.90
21487;DHT22;10905;50.822;4.336;2023-07-29T08:07:23;21.70;99.90
21487;DHT22;10905;50.822;4.336;2023-07-29T08:09:49;21.60;99.90
21487;DHT22;10905;50.822;4.336;2023-07-29T08:12:15;21.70;99.90
21487;DHT22;10905;50.822;4.336;2023-07-29T08:14:40;21.90;99.90
21487;DHT22;10905;50.822;4.336;2023-07-29T08:17:06;22.00;99.90
21487;DHT22;10905;50.822;4.336;2023-07-29T08:19:32;22.20;99.90
21487;DHT22;10905;50.822;4.336;2023-07-29T08:21:57;22.30;99.90
21487;DHT22;10905;50.822;4.336;2023-07-29T08:24:24;22.30;99.90
21487;DHT22;10905;50.822;4.336;2023-07-29T08:26:49;22.30;99.90
21487;DHT22;10905;50.822;4.336;2023-07-29T08:29:15;22.30;99.90
21487;DHT22;10905;50.822;4.336;2023-07-29T08:31:40;22.40;99.90
21487;DHT22;10905;50.822;4.336;2023-07-29T08:34:06;22.50;99.90
21487;DHT22;10905;50.822;4.336;2023-07-29T08:36:32;22.50;99.90
21487;DHT22;10905;50.822;4.336;2023-07-29T08:38:58;22.50;99.90
21487;DHT22;10905;50.822;4.336;2023-07-29T08:41:31;22.50;99.90
21487;DHT22;10905;50.822;4.336;2023-07-29T08:44:09;22.50;99.90
21487;DHT22;10905;50.822;4.336;2023-07-29T08:46:36;22.50;99.90
21487;DHT22;10905;50.822;4.336;2023-07-29T08:49:03;22.50;99.90
21487;DHT22;10905;50.822;4.336;2023-07-29T08:51:31;22.40;99.90
21487;DHT22;10905;50.822;4.336;2023-07-29T08:53:58;22.40;99.90
21487;DHT22;10905;50.822;4.336;2023-07-29T08:56:24;22.50;99.90
21487;DHT22;10905;50.822;4.336;2023-07-29T08:58:50;22.70;99.90
21487;DHT22;10905;50.822;4.336;2023-07-29T09:01:16;22.80;99.90
21487;DHT22;10905;50.822;4.336;2023-07-29T09:03:42;22.90;99.90
21487;DHT22;10905;50.822;4.336;2023-07-29T09:06:08;23.10;99.90
21487;DHT22;10905;50.822;4.336;2023-07-29T09:08:34;23.20;99.90
21487;DHT22;10905;50.822;4.336;2023-07-29T09:11:00;23.50;99.90
21487;DHT22;10905;50.822;4.336;2023-07-29T09:13:26;23.60;99.90
21487;DHT22;10905;50.822;4.336;2023-07-29T09:15:55;23.60;99.90
21487;DHT22;10905;50.822;4.336;2023-07-29T09:18:21;23.80;99.90
21487;DHT22;10905;50.822;4.336;2023-07-29T09:20:49;23.80;99.90
21487;DHT22;10905;50.822;4.336;2023-07-29T09:23:15;23.80;99.90
21487;DHT22;10905;50.822;4.336;2023-07-29T09:25:41;23.90;99.90
21487;DHT22;10905;50.822;4.336;2023-07-29T09:28:09;23.80;99.90
21487;DHT22;10905;50.822;4.336;2023-07-29T09:30:37;23.70;99.90
21487;DHT22;10905;50.822;4.336;2023-07-29T09:33:03;23.70;99.90
21487;DHT22;10905;50.822;4.336;2023-07-29T09:35:30;23.60;99.90
21487;DHT22;10905;50.822;4.336;2023-07-29T09:37:57;23.60;99.90
21487;DHT22;10905;50.822;4.336;2023-07-29T09:40:23;23.60;99.90
21487;DHT22;10905;50.822;4.336;2023-07-29T09:42:50;23.50;99.90
21487;DHT22;10905;50.822;4.336;2023-07-29T09:45:23;23.30;99.90
21487;DHT22;10905;50.822;4.336;2023-07-29T09:47:49;23.30;99.90
21487;DHT22;10905;50.822;4.336;2023-07-29T09:50:16;23.20;99.90
21487;DHT22;10905;50.822;4.336;2023-07-29T09:52:42;23.20;99.90
21487;DHT22;10905;50.822;4.336;2023-07-29T09:55:11;23.20;99.90
21487;DHT22;10905;50.822;4.336;2023-07-29T09:57:37;23.30;99.90
21487;DHT22;10905;50.822;4.336;2023-07-29T10:00:04;23.60;99.90
21487;DHT22;10905;50.822;4.336;2023-07-29T10:02:40;23.80;99.90
21487;DHT22;10905;50.822;4.336;2023-07-29T10:05:07;23.90;99.90
21487;DHT22;10905;50.822;4.336;2023-07-29T10:07:38;23.90;99.90
21487;DHT22;10905;50.822;4.336;2023-07-29T10:10:05;23.80;99.90
21487;DHT22;10905;50.822;4.336;2023-07-29T10:12:32;24.00;99.90
21487;DHT22;10905;50.822;4.336;2023-07-29T10:14:59;24.40;99.90
21487;DHT22;10905;50.822;4.336;2023-07-29T10:17:26;24.70;99.90
21487;DHT22;10905;50.822;4.336;2023-07-29T10:19:53;24.70;99.90
21487;DHT22;10905;50.822;4.336;2023-07-29T10:22:20;24.50;99.90
21487;DHT22;10905;50.822;4.336;2023-07-29T10:24:48;24.20;99.90
21487;DHT22;10905;50.822;4.336;2023-07-29T10:27:17;24.10;99.90
21487;DHT22;10905;50.822;4.336;2023-07-29T10:29:44;23.90;99.90
21487;DHT22;10905;50.822;4.336;2023-07-29T10:32:11;23.60;99.90
21487;DHT22;10905;50.822;4.336;2023-07-29T10:34:37;23.50;99.90
21487;DHT22;10905;50.822;4.336;2023-07-29T10:37:03;23.00;99.90
21487;DHT22;10905;50.822;4.336;2023-07-29T10:39:38;22.50;99.90
21487;DHT22;10905;50.822;4.336;2023-07-29T10:42:06;22.00;99.90
21487;DHT22;10905;50.822;4.336;2023-07-29T10:47:19;21.90;99.90
21487;DHT22;10905;50.822;4.336;2023-07-29T10:49:48;22.20;99.90
21487;DHT22;10905;50.822;4.336;2023-07-29T10:52:29;22.30;99.90
21487;DHT22;10905;50.822;4.336;2023-07-29T10:54:55;22.40;99.90
21487;DHT22;10905;50.822;4.336;2023-07-29T10:57:35;22.40;99.90
21487;DHT22;10905;50.822;4.336;2023-07-29T11:00:03;22.30;99.90
21487;DHT22;10905;50.822;4.336;2023-07-29T11:02:36;22.20;99.90
21487;DHT22;10905;50.822;4.336;2023-07-29T11:05:18;22.10;99.90
21487;DHT22;10905;50.822;4.336;2023-07-29T11:07:48;22.00;99.90
21487;DHT22;10905;50.822;4.336;2023-07-29T11:10:15;22.00;99.90
21487;DHT22;10905;50.822;4.336;2023-07-29T11:12:50;22.00;99.90
21487;DHT22;10905;50.822;4.336;2023-07-29T11:18:02;21.80;99.90
21487;DHT22;10905;50.822;4.336;2023-07-29T11:20:30;21.90;99.90
21487;DHT22;10905;50.822;4.336;2023-07-29T11:22:57;21.70;99.90
21487;DHT22;10905;50.822;4.336;2023-07-29T11:25:25;21.70;99.90
21487;DHT22;10905;50.822;4.336;2023-07-29T11:27:55;21.70;99.90
21487;DHT22;10905;50.822;4.336;2023-07-29T11:30:21;21.80;99.90
21487;DHT22;10905;50.822;4.336;2023-07-29T11:32:48;22.00;99.90
21487;DHT22;10905;50.822;4.336;2023-07-29T11:35:16;22.30;99.90
21487;DHT22;10905;50.822;4.336;2023-07-29T11:37:44;22.50;99.90
21487;DHT22;10905;50.822;4.336;2023-07-29T11:40:16;22.80;99.90
21487;DHT22;10905;50.822;4.336;2023-07-29T11:42:42;22.90;99.90
21487;DHT22;10905;50.822;4.336;2023-07-29T11:45:08;23.10;99.90
21487;DHT22;10905;50.822;4.336;2023-07-29T11:47:35;23.40;99.90
21487;DHT22;10905;50.822;4.336;2023-07-29T11:50:03;23.60;99.90
21487;DHT22;10905;50.822;4.336;2023-07-29T11:52:31;23.60;99.90
21487;DHT22;10905;50.822;4.336;2023-07-29T11:54:58;23.60;99.90
21487;DHT22;10905;50.822;4.336;2023-07-29T11:57:24;23.70;99.90
21487;DHT22;10905;50.822;4.336;2023-07-29T11:59:50;23.60;99.90
21487;DHT22;10905;50.822;4.336;2023-07-29T12:02:17;23.30;99.90
21487;DHT22;10905;50.822;4.336;2023-07-29T12:04:46;23.20;99.90
21487;DHT22;10905;50.822;4.336;2023-07-29T12:07:13;23.00;99.90
21487;DHT22;10905;50.822;4.336;2023-07-29T12:09:41;22.60;99.90
21487;DHT22;10905;50.822;4.336;2023-07-29T12:12:07;22.40;99.90
21487;DHT22;10905;50.822;4.336;2023-07-29T12:14:34;22.00;99.90
21487;DHT22;10905;50.822;4.336;2023-07-29T12:17:00;21.50;99.90
21487;DHT22;10905;50.822;4.336;2023-07-29T12:19:37;21.30;99.90
21487;DHT22;10905;50.822;4.336;2023-07-29T12:22:04;21.20;99.90
21487;DHT22;10905;50.822;4.336;2023-07-29T12:24:31;21.20;99.90
21487;DHT22;10905;50.822;4.336;2023-07-29T12:26:57;21.20;99.90
21487;DHT22;10905;50.822;4.336;2023-07-29T12:29:23;21.20;99.90
21487;DHT22;10905;50.822;4.336;2023-07-29T12:31:56;21.10;99.90
21487;DHT22;10905;50.822;4.336;2023-07-29T12:34:25;21.20;99.90
21487;DHT22;10905;50.822;4.336;2023-07-29T12:36:51;21.40;99.90
21487;DHT22;10905;50.822;4.336;2023-07-29T12:41:50;21.70;99.90
21487;DHT22;10905;50.822;4.336;2023-07-29T12:44:16;21.90;99.90
21487;DHT22;10905;50.822;4.336;2023-07-29T12:46:42;22.30;99.90
21487;DHT22;10905;50.822;4.336;2023-07-29T12:49:08;22.50;99.90
21487;DHT22;10905;50.822;4.336;2023-07-29T12:51:33;22.60;99.90
21487;DHT22;10905;50.822;4.336;2023-07-29T12:54:00;22.80;99.90
21487;DHT22;10905;50.822;4.336;2023-07-29T12:56:25;23.00;99.90
21487;DHT22;10905;50.822;4.336;2023-07-29T12:58:51;23.30;99.90
21487;DHT22;10905;50.822;4.336;2023-07-29T13:01:17;23.60;99.90
21487;DHT22;10905;50.822;4.336;2023-07-29T13:03:47;23.80;99.90
21487;DHT22;10905;50.822;4.336;2023-07-29T13:06:14;23.90;99.90
21487;DHT22;10905;50.822;4.336;2023-07-29T13:08:41;23.90;99.90
21487;DHT22;10905;50.822;4.336;2023-07-29T13:11:07;23.90;99.90
21487;DHT22;10905;50.822;4.336;2023-07-29T13:13:32;23.90;99.90
21487;DHT22;10905;50.822;4.336;2023-07-29T13:15:59;23.80;99.90
21487;DHT22;10905;50.822;4.336;2023-07-29T13:18:24;23.60;99.90
21487;DHT22;10905;50.822;4.336;2023-07-29T13:20:50;23.60;99.90
21487;DHT22;10905;50.822;4.336;2023-07-29T13:23:16;23.60;99.90
21487;DHT22;10905;50.822;4.336;2023-07-29T13:25:42;23.60;99.90
21487;DHT22;10905;50.822;4.336;2023-07-29T13:28:10;23.60;99.90
21487;DHT22;10905;50.822;4.336;2023-07-29T13:30:36;23.60;99.90
21487;DHT22;10905;50.822;4.336;2023-07-29T13:33:02;23.80;99.90
21487;DHT22;10905;50.822;4.336;2023-07-29T13:35:28;23.90;99.90
21487;DHT22;10905;50.822;4.336;2023-07-29T13:37:53;24.20;99.90
21487;DHT22;10905;50.822;4.336;2023-07-29T13:40:19;24.50;99.90
21487;DHT22;10905;50.822;4.336;2023-07-29T13:42:45;24.60;99.90
21487;DHT22;10905;50.822;4.336;2023-07-29T13:45:10;24.50;99.90
21487;DHT22;10905;50.822;4.336;2023-07-29T13:47:36;24.30;99.90
21487;DHT22;10905;50.822;4.336;2023-07-29T13:50:02;24.20;99.90
21487;DHT22;10905;50.822;4.336;2023-07-29T13:52:28;24.20;99.90
21487;DHT22;10905;50.822;4.336;2023-07-29T13:54:54;24.10;99.90
21487;DHT22;10905;50.822;4.336;2023-07-29T13:57:20;24.00;99.90
21487;DHT22;10905;50.822;4.336;2023-07-29T13:59:45;23.90;99.90
21487;DHT22;10905;50.822;4.336;2023-07-29T14:02:11;23.80;99.90
21487;DHT22;10905;50.822;4.336;2023-07-29T14:04:36;23.90;99.90
21487;DHT22;10905;50.822;4.336;2023-07-29T14:07:02;24.00;99.90
21487;DHT22;10905;50.822;4.336;2023-07-29T14:09:28;24.30;99.90
21487;DHT22;10905;50.822;4.336;2023-07-29T14:11:54;24.50;99.90
21487;DHT22;10905;50.822;4.336;2023-07-29T14:14:20;24.50;99.90
21487;DHT22;10905;50.822;4.336;2023-07-29T14:16:46;24.50;99.90
21487;DHT22;10905;50.822;4.336;2023-07-29T14:19:12;24.60;99.90
21487;DHT22;10905;50.822;4.336;2023-07-29T14:21:38;24.60;99.90
21487;DHT22;10905;50.822;4.336;2023-07-29T14:24:04;24.20;99.90
21487;DHT22;10905;50.822;4.336;2023-07-29T14:26:29;24.20;99.90
21487;DHT22;10905;50.822;4.336;2023-07-29T14:28:55;24.30;99.90
21487;DHT22;10905;50.822;4.336;2023-07-29T14:31:21;24.40;99.90
21487;DHT22;10905;50.822;4.336;2023-07-29T14:33:47;24.70;99.90
21487;DHT22;10905;50.822;4.336;2023-07-29T14:36:15;25.00;99.90
21487;DHT22;10905;50.822;4.336;2023-07-29T14:38:41;24.90;99.90
21487;DHT22;10905;50.822;4.336;2023-07-29T14:41:06;24.80;99.90
21487;DHT22;10905;50.822;4.336;2023-07-29T14:43:32;24.90;99.90
21487;DHT22;10905;50.822;4.336;2023-07-29T14:45:58;25.10;99.90
21487;DHT22;10905;50.822;4.336;2023-07-29T14:48:23;25.10;99.90
21487;DHT22;10905;50.822;4.336;2023-07-29T14:50:49;25.10;99.90
21487;DHT22;10905;50.822;4.336;2023-07-29T14:53:14;25.00;99.90
21487;DHT22;10905;50.822;4.336;2023-07-29T14:55:40;24.90;99.90
21487;DHT22;10905;50.822;4.336;2023-07-29T14:58:06;24.70;99.90
21487;DHT22;10905;50.822;4.336;2023-07-29T15:00:31;24.70;99.90
21487;DHT22;10905;50.822;4.336;2023-07-29T15:02:57;24.70;99.90
21487;DHT22;10905;50.822;4.336;2023-07-29T15:05:23;24.60;99.90
21487;DHT22;10905;50.822;4.336;2023-07-29T15:07:48;24.70;99.90
21487;DHT22;10905;50.822;4.336;2023-07-29T15:10:14;24.90;99.90
21487;DHT22;10905;50.822;4.336;2023-07-29T15:12:44;25.00;99.90
21487;DHT22;10905;50.822;4.336;2023-07-29T15:15:10;24.90;99.90
21487;DHT22;10905;50.822;4.336;2023-07-29T15:17:37;25.00;99.90
21487;DHT22;10905;50.822;4.336;2023-07-29T15:20:03;25.10;99.90
21487;DHT22;10905;50.822;4.336;2023-07-29T15:22:29;25.20;99.90
21487;DHT22;10905;50.822;4.336;2023-07-29T15:24:57;25.30;99.90
21487;DHT22;10905;50.822;4.336;2023-07-29T15:27:22;25.70;99.90
21487;DHT22;10905;50.822;4.336;2023-07-29T15:29:48;25.90;99.90
21487;DHT22;10905;50.822;4.336;2023-07-29T15:32:14;25.60;99.90
21487;DHT22;10905;50.822;4.336;2023-07-29T15:34:39;25.50;99.90
21487;DHT22;10905;50.822;4.336;2023-07-29T15:37:05;25.20;99.90
21487;DHT22;10905;50.822;4.336;2023-07-29T15:39:30;25.00;99.90
21487;DHT22;10905;50.822;4.336;2023-07-29T15:41:56;24.50;99.90
21487;DHT22;10905;50.822;4.336;2023-07-29T15:44:22;24.30;99.90
21487;DHT22;10905;50.822;4.336;2023-07-29T15:46:48;24.00;99.90